Norris Rancho Marino Reserve, California Weather observations

Data are for 10 minute period ending at time listed.
 Day   Time   Solar   Ave.   Ave.  Ave.  Vector  Max.   Baro.   Total    
  of    of     Rad.   Air    Rel.  Wind   Wind   Wind  Press.  Precip.   
Year   Day            Temp.  Hum.  Speed  Dir.   Gust                    
2016   (PST)  Kw/m2    F      %     mph   deg.    mph    mb.     in.     
-------------------------------------------------------------------------
 145    1:00   0.00   54.3    92    5.1   312     8.3   1010.3    0.00 
 145    1:10   0.00   54.4    92    7.4   297    11.2   1010.3    0.00 
 145    1:20   0.00   54.3    92    6.6   293     9.3   1010.3    0.00 
 145    1:30   0.00   54.2    93    5.1   296     7.5   1010.2    0.00 
 145    1:40   0.00   54.2    93    4.7   299     6.5   1010.1    0.00 
 145    1:50   0.00   54.2    93    4.5   297     8.2   1010.0    0.00 
 145    2:00   0.00   54.1    93    4.8   292     6.2   1010.1    0.00 
 145    2:10   0.00   54.0    93    5.8   288     8.3   1010.0    0.00 
 145    2:20   0.00   54.0    94    5.5   297     8.5   1010.0    0.00 
 145    2:30   0.00   53.9    94    7.0   291     8.6   1010.0    0.00 
 145    2:40   0.00   53.9    94    5.2   314     7.5   1010.0    0.00 
 145    2:50   0.00   53.9    94    4.9   318     7.7   1010.0    0.00 
 145    3:00   0.00   53.8    94    5.4   307     9.0   1010.0    0.00 
 145    3:10   0.00   53.9    93    6.0   295     8.8   1010.0    0.00 
 145    3:20   0.00   54.1    93    3.0   304     4.6   1010.1    0.00 
 145    3:30   0.00   53.9    93    3.8   291     5.3   1010.1    0.00 
 145    3:40   0.00   53.9    93    3.2   316     5.0   1010.1    0.00 
 145    3:50   0.00   53.9    93    2.7   311     5.9   1010.1    0.00 
 145    4:00   0.00   53.9    93    3.6   336     5.6   1010.1    0.00 
 145    4:10   0.00   54.0    93    2.9   316     5.6   1010.2    0.00 
 145    4:20   0.00   54.0    93    4.2   304     5.7   1010.3    0.00 
 145    4:30   0.00   54.0    92    4.3   300     8.8   1010.4    0.00 
 145    4:40   0.00   54.0    93    7.9   299    11.5   1010.4    0.00 
 145    4:50   0.00   53.9    93    6.9   303     9.2   1010.4    0.00 
 145    5:00   0.00   53.7    93    5.9   304     9.3   1010.5    0.00 
 145    5:10   0.01   53.6    93    4.1   327     6.8   1010.5    0.00 
 145    5:20   0.01   53.7    93    3.5    18     5.5   1010.5    0.00 
 145    5:30   0.01   53.7    92    3.6    20     5.1   1010.6    0.00 
 145    5:40   0.03   53.6    92    3.6    36     4.7   1010.6    0.00 
 145    5:50   0.04   53.9    92    1.8    28     3.7   1010.7    0.00 
 145    6:00   0.06   54.2    92    4.0   254     6.3   1011.0    0.00 
 145    6:10   0.06   54.4    92    4.4   269     6.1   1011.1    0.00 
 145    6:20   0.08   54.0    93    5.3   282     6.6   1011.2    0.00 
 145    6:30   0.09   54.0    93    5.9   297     7.9   1011.4    0.00 
 145    6:40   0.10   54.2    93    6.2   291     7.8   1011.6    0.00 
 145    6:50   0.11   54.4    93    4.8   302     7.3   1011.7    0.00 
 145    7:00   0.11   54.4    93    3.6   293     5.3   1011.9    0.00 
 145    7:10   0.11   54.4    92    4.8   285     6.5   1012.0    0.00 
 145    7:20   0.16   54.4    92    4.9   293     6.7   1012.1    0.00 
 145    7:30   0.21   55.0    91    4.2   288     7.2   1012.2    0.00 
 145    7:40   0.19   55.4    89    4.4   291     6.5   1012.2    0.00 
 145    7:50   0.21   55.6    87    5.1   283     6.6   1012.4    0.00 
 145    8:00   0.22   55.9    85    4.5   286     6.2   1012.6    0.00 
 145    8:10   0.21   55.9    85    3.9   268     5.1   1012.7    0.00 
 145    8:20   0.26   56.0    86    3.0   238     4.2   1012.9    0.00 
 145    8:30   0.28   56.3    86    3.0   211     4.2   1013.0    0.00 
 145    8:40   0.35   56.8    86    2.6   200     3.9   1013.0    0.00 
 145    8:50   0.45   57.1    85    2.1   186     2.8   1013.1    0.00 
 145    9:00   0.53   57.4    84    3.1   222     4.7   1013.1    0.00 
 145    9:10   0.66   57.6    84    3.7   229     5.3   1013.1    0.00 
 145    9:20   0.71   58.2    82    3.9   227     6.4   1013.0    0.00 
 145    9:30   0.68   57.7    82    3.4   220     4.4   1013.0    0.00 
 145    9:40   0.65   58.7    82    3.0   208     3.7   1013.2    0.00 
 145    9:50   0.58   59.4    81    2.7   203     3.9   1013.3    0.00 
 145   10:00   0.86   59.8    79    3.4   217     5.2   1013.4    0.00 
 145   10:10   0.91   59.2    80    3.4   219     4.6   1013.4    0.00 
 145   10:20   0.78   58.7    80    4.1   224     5.4   1013.5    0.00 
 145   10:30   0.89   58.1    81    4.0   225     5.7   1013.6    0.00 
 145   10:40   0.88   58.8    80    4.4   230     6.1   1013.6    0.00 
 145   10:50   0.91   59.6    78    4.7   234     7.1   1013.7    0.00 
 145   11:00   0.93   59.5    78    4.4   223     6.1   1013.8    0.00 
 145   11:10   0.93   59.1    79    3.9   219     5.2   1013.9    0.00 
 145   11:20   0.95   59.4    79    4.2   222     5.5   1014.0    0.00 
 145   11:30   0.96   59.7    78    4.1   224     5.2   1014.0    0.00 
 145   11:40   0.95   60.7    75    3.6   217     5.1   1013.9    0.00 
 145   11:50   0.95   61.3    74    3.8   211     5.1   1014.0    0.00 
 145   12:00   0.95   61.8    73    4.0   210     5.5   1014.0    0.00 
 145   12:10   0.95   61.5    73    4.2   207     5.3   1014.0    0.00 
 145   12:20   0.95   61.8    72    4.0   218     5.5   1014.0    0.00 
 145   12:30   0.95   60.1    75    4.7   225     6.4   1014.0    0.00 
 145   12:40   0.94   60.9    75    4.8   220     6.2   1014.0    0.00 
 145   12:50   0.96   61.6    74    3.9   208     5.0   1014.0    0.00 
 145   13:00   0.87   61.4    74    3.8   206     5.6   1014.0    0.00 
 145   13:10   0.75   60.9    75    4.2   222     6.3   1013.9    0.00 
 145   13:20   0.78   60.7    76    5.2   237     7.0   1013.8    0.00 
 145   13:30   0.80   61.0    73    6.0   246     7.9   1013.7    0.00 
 145   13:40   0.75   60.9    73    6.0   257     8.5   1013.6    0.00 
 145   13:50   0.87   61.1    73    5.5   254     8.2   1013.7    0.00 
 145   14:00   0.87   61.6    73    5.4   250     7.8   1013.7    0.00 
 145   14:10   0.85   61.1    74    5.9   255     8.2   1013.7    0.00 
 145   14:20   0.83   60.8    75    5.6   261     7.7   1013.7    0.00 
 145   14:30   0.81   60.2    76    6.5   262     8.8   1013.7    0.00 
 145   14:40   0.79   60.1    77    6.7   265     8.8   1013.7    0.00 
 145   14:50   0.77   60.6    76    7.0   264     9.7   1013.8    0.00 
 145   15:00   0.75   60.0    78    7.1   263     9.0   1013.7    0.00 
 145   15:10   0.72   60.5    77    7.1   270     9.2   1013.7    0.00 
 145   15:20   0.69   60.0    76    8.2   270    10.5   1013.7    0.00 
 145   15:30   0.67   59.7    76    8.8   273    11.2   1013.7    0.00 
 145   15:40   0.64   60.4    74    8.5   276    10.9   1013.6    0.00 
 145   15:50   0.61   60.0    75    8.7   278    10.9   1013.6    0.00 
 145   16:00   0.59   59.5    77    8.3   280    10.7   1013.7    0.00 
 145   16:10   0.56   59.3    78    7.7   285     9.9   1013.7    0.00 
 145   16:20   0.52   59.2    78    8.3   286    10.3   1013.7    0.00 
 145   16:30   0.26   58.6    79    8.2   284    10.9   1013.6    0.00 
 145   16:40   0.17   57.9    81    8.4   282    10.8   1013.7    0.00 
 145   16:50   0.27   58.0    82    8.1   283    10.3   1013.7    0.00 
 145   17:00   0.33   58.2    82    8.1   287    10.7   1013.7    0.00 
 145   17:10   0.42   58.9    80    7.3   284     9.8   1013.7    0.00 
 145   17:20   0.24   58.5    81    6.8   276     9.1   1013.7    0.00 
 145   17:30   0.19   57.9    82    6.2   275     8.3   1013.8    0.00 
 145   17:40   0.19   57.8    83    6.3   266     8.7   1013.8    0.00 
 145   17:50   0.11   57.1    85    6.2   267     7.7   1013.8    0.00 
 145   18:00   0.27   57.8    85    6.0   273     8.2   1013.8    0.00 
 145   18:10   0.24   58.1    83    7.2   277     9.3   1013.8    0.00 
 145   18:20   0.16   57.8    83    7.2   282     9.3   1013.8    0.00 
 145   18:30   0.12   57.6    84    7.4   286     9.3   1013.8    0.00 
 145   18:40   0.08   56.9    85    7.1   286     9.3   1013.9    0.00 
 145   18:50   0.04   56.5    86    6.4   286     8.7   1014.0    0.00 
 145   19:00   0.01   56.1    87    6.9   284     9.3   1014.1    0.00 
 145   19:10   0.01   55.9    88    7.0   286     9.3   1014.2    0.00 
 145   19:20   0.00   56.0    88    7.8   284    10.5   1014.3    0.00 
 145   19:30   0.00   56.3    88    7.3   290     9.9   1014.3    0.00 
 145   19:40   0.00   55.7    88    6.3   296     9.2   1014.3    0.00 
 145   19:50   0.00   55.1    89    7.0   301     9.1   1014.3    0.00 
 145   20:00   0.00   55.0    89    6.4   309     8.0   1014.3    0.00 
 145   20:10   0.00   55.2    89    6.5   311     8.8   1014.3    0.00 
 145   20:20   0.00   55.4    89    6.5   315     9.3   1014.3    0.00 
 145   20:30   0.00   55.2    90    6.1   315     8.1   1014.4    0.00 
 145   20:40   0.00   54.7    90    4.7   309     7.2   1014.4    0.00 
 145   20:50   0.00   54.6    90    3.8   314     5.6   1014.4    0.00 
 145   21:00   0.00   54.5    91    3.3   324     6.4   1014.4    0.00 
 145   21:10   0.00   54.5    91    3.8   324     5.7   1014.5    0.00 
 145   21:20   0.00   54.3    91    4.0   321     5.8   1014.6    0.00 
 145   21:30   0.00   54.3    91    3.4   320     4.9   1014.6    0.00 
 145   21:40   0.00   54.5    91    3.2   326     4.8   1014.6    0.00 
 145   21:50   0.00   54.6    91    2.4   306     3.8   1014.6    0.00 
 145   22:00   0.00   54.4    91    2.0   315     2.9   1014.6    0.00 
 145   22:10   0.00   54.4    91    0.2   330     1.8   1014.6    0.00 
 145   22:20   0.00   54.4    91    0.9    35     1.8   1014.6    0.00 
 145   22:30   0.00   54.2    91    1.0    60     2.0   1014.6    0.00 
 145   22:40   0.00   54.6    91    1.0    69     2.5   1014.7    0.00 
 145   22:50   0.00   54.7    91    0.1   353     0.9   1014.7    0.00 
 145   23:00   0.00   54.4    91    0.6     6     1.9   1014.7    0.00 
 145   23:10   0.00   54.8    92    2.3   287     4.5   1014.7    0.00 
 145   23:20   0.00   55.1    92    5.0   289     6.7   1014.7    0.00 
 145   23:30   0.00   55.0    92    4.3   299     6.6   1014.8    0.00 
 145   23:40   0.00   54.6    92    2.6   311     4.2   1014.9    0.00 
 145   23:50   0.00   54.4    92    2.9   314     4.4   1014.9    0.00 
 146    0:00   0.00   54.3    92    3.1   310     4.8   1014.9    0.00 
 146    0:10   0.00   54.4    92    2.9   323     3.9   1014.8    0.00 
 146    0:20   0.00   54.5    91    3.3   319     6.4   1014.7    0.00 
 146    0:30   0.00   54.6    91    3.4   317     5.1   1014.7    0.00 
 146    0:40   0.00   54.8    90    3.2   304     4.5   1014.6    0.00 
 146    0:50   0.00   54.9    90    3.5   290     4.2   1014.6    0.00 

Return to Norris Rancho Marino Reserve graphs page.


Western Regional Climate Center,wrcc@dri.edu